ADDS METAR Data INFO
IDs: Format: Raw Decoded Include TAF

Data at: 2254 UTC 16 Jan 2018

KRAL 162153Z 00000KT 10SM BKN150 22/04 A3010 RMK AO2 SLP182 T02170039
KRAL 162053Z VRB03KT 8SM BKN150 21/06 A3012 RMK AO2 SLP187 T02060061 58015
KRAL 161953Z 00000KT 7SM BKN150 19/07 A3014 RMK AO2 SLP194 T01890072
KRAL 161853Z 27003KT 8SM BKN150 17/08 A3016 RMK AO2 SLP204 T01720078
KRAL 161753Z 26005KT 9SM OVC200 15/08 A3016 RMK AO2 SLP203 T01500078 10150 20089 53009
KRAL 161653Z 05006KT 10SM CLR 13/07 A3015 RMK AO2 SLP201 T01280067
KRAL 161553Z 00000KT 8SM BKN200 11/07 A3014 RMK AO2 SLP197 T01060072
KRAL 161453Z 00000KT 10SM BKN200 10/06 A3014 RMK AO2 SLP194 T01000061 53004 $
KRAL 161353Z AUTO 06003KT 10SM CLR 10/06 A3012 RMK AO2 SLP187 T01000061 $
KRAL 161253Z AUTO 00000KT 10SM CLR 10/06 A3012 RMK AO2 SLP187 T01000061 $
KRAL 161153Z AUTO 09004KT 9SM CLR 10/07 A3013 RMK AO2 SLP190 T01000072 10144 20100 58002 $
KRAL 161053Z AUTO 05003KT 9SM CLR 11/07 A3014 RMK AO2 SLP193 T01110072 $
KRAL 160953Z AUTO 08004KT 10SM CLR 11/07 A3014 RMK AO2 SLP194 T01110072 $
KRAL 160853Z AUTO 00000KT 10SM CLR 12/07 A3013 RMK AO2 SLP190 T01220072 51008 $
KRAL 160753Z AUTO 00000KT 10SM CLR 12/07 A3013 RMK AO2 SLP191 T01220072 402440078 $
KRAL 160653Z AUTO 00000KT 10SM CLR 13/07 A3013 RMK AO2 SLP190 T01330072 $
KRAL 160553Z AUTO 00000KT 10SM CLR 14/08 A3011 RMK AO2 SLP183 T01440078 10228 20139 53010 $
KRAL 160453Z AUTO 00000KT 10SM CLR 15/07 A3009 RMK AO2 SLP178 T01500072 $
KRAL 160353Z 00000KT 10SM CLR 18/08 A3008 RMK AO2 SLP177 T01780078 $
KRAL 160253Z 00000KT 10SM OVC150 18/06 A3008 RMK AO2 SLP174 T01830061 50001 $
KRAL 160153Z 29003KT 10SM OVC150 19/06 A3009 RMK AO2 SLP177 T01890061 $
KRAL 160053Z 28006KT 10SM BKN150 21/06 A3008 RMK AO2 SLP177 T02060061 $
KRAL 152353Z 28006KT 10SM BKN150 23/02 A3007 RMK AO2 SLP171 T02280022 10244 20172 55002 $
KRAL 152253Z 28005KT 10SM BKN200 23/02 A3006 RMK AO2 SLP167 T02330022 $
KRAL 152153Z 29003KT 10SM CLR 24/01 A3006 RMK AO2 SLP165 T02390006 $
KRAL 152053Z VRB03KT 10SM CLR 23/02 A3008 RMK AO2 SLP173 T02330017 58023 $
KRAL 151953Z VRB03KT 10SM CLR 22/01 A3011 RMK AO2 SLP182 T02220011 $
KRAL 151853Z 00000KT 10SM CLR 20/04 A3012 RMK AO2 SLP189 T02000039 $
KRAL 151753Z 00000KT 10SM SCT200 17/03 A3015 RMK AO2 SLP197 T01720033 10172 20078 51010 $
KRAL 151653Z 06003KT 10SM CLR 13/03 A3015 RMK AO2 SLP197 T01330033 $
KRAL 151553Z 00000KT 10SM FEW200 10/05 A3013 RMK AO2 SLP192 T01000050 $
KRAL 151453Z 00000KT 10SM CLR 10/03 A3012 RMK AO2 SLP188 T01000033 53004 $
KRAL 151353Z AUTO 03003KT 10SM CLR 10/03 A3009 RMK AO2 SLP180 T01000033 $
KRAL 151253Z AUTO 05006KT 10SM CLR 10/03 A3009 RMK AO2 SLP177 T01000033 $
KRAL 151153Z AUTO 06004KT 10SM CLR 10/04 A3011 RMK AO2 SLP182 T01000044 10150 20089 58006 $